Weather History for Hugo, OK

Change the Weather History Date:

Saturday, March 1, 2014

  Actual Average Record
Temperature  
Mean Temperature 62 °F -  
Max Temperature 77 °F 64 °F 77 °F (2014)
Min Temperature 48 °F 40 °F 29 °F (2013)
Degree Days  
Heating Degree Days 2    
Growing Degree Days 12 (Base 50)    
Moisture  
Dew Point 56 °F    
Average Humidity 85    
Maximum Humidity 98    
Minimum Humidity 58    
Precipitation  
Precipitation 0.00 in - - ()
Sea Level Pressure  
Sea Level Pressure 29.95 in    
Wind  
Wind Speed 7 mph (ESE)    
Max Wind Speed 13 mph    
Max Gust Speed 18 mph    
Visibility 6 miles    
Events      
Averages and records for this station are not official NWS values.
T = Trace of Precipitation, MM = Missing Value Source: NWS Daily Summary

Daily Weather History Graph

Daily Weather History Graph

Search for Another Location

Airport:

Trip Planner

Search our weather history database for the weather conditions in past years. The results will help you decide how hot, cold, wet, or windy it might be!

Date:

Astronomy

Mar. 01, 2014 Rise Set
Actual Time 6:50 AM CST 6:18 PM CST
Civil Twilight 6:25 AM CST 6:43 PM CST
Nautical Twilight 5:56 AM CST 7:12 PM CST
Astronomical Twilight 5:27 AM CST 7:41 PM CST
Moon 6:47 AM CST (3/1) 7:02 PM CST (3/1)
Length of Visible Light 12h 17m
Length of Day
11h 27m
New Moon, 0% of the Moon is Illuminated
Mar 1
New Moon
Mar 8
First Quarter
Mar 16
Full
Mar 23
Last Quarter
Mar 30
New

Hourly Weather History & Observations

Time (CST) Temp. Dew Point Humidity Pressure Visibility Wind Dir Wind Speed Gust Speed Precip Events Conditions
12:15 AM 48.7 °F 47.8 °F 97% 29.92 in 1.0 mi East 8.1 mph 16.1 mph N/A   Overcast
12:35 AM 49.1 °F 48.2 °F 97% 29.92 in 1.0 mi East 9.2 mph - N/A   Overcast
12:50 AM 49.1 °F 48.2 °F 97% 29.92 in 1.0 mi East 8.1 mph - N/A   Overcast
1:15 AM 49.1 °F 48.4 °F 97% 29.93 in 1.0 mi ENE 6.9 mph - N/A   Overcast
1:35 AM 49.3 °F 48.4 °F 97% 29.93 in 1.2 mi East 10.4 mph - N/A   Overcast
1:55 AM 49.5 °F 48.6 °F 97% 29.93 in 1.2 mi East 5.8 mph - N/A   Overcast
2:15 AM 49.5 °F 48.7 °F 97% 29.93 in 1.2 mi East 8.1 mph - N/A   Overcast
2:35 AM 49.6 °F 48.9 °F 97% 29.93 in 1.2 mi East 9.2 mph - N/A   Overcast
2:55 AM 49.6 °F 48.9 °F 97% 29.93 in 1.5 mi East 6.9 mph - N/A   Overcast
3:15 AM 50.0 °F 49.1 °F 97% 29.93 in 1.2 mi East 5.8 mph - N/A   Overcast
3:35 AM 50.0 °F 49.1 °F 97% 29.93 in 1.2 mi East 5.8 mph - N/A   Overcast
3:55 AM 50.0 °F 49.3 °F 97% 29.94 in 1.2 mi East 6.9 mph - N/A   Overcast
4:15 AM 50.2 °F 49.3 °F 97% 29.94 in 1.0 mi East 5.8 mph - N/A   Overcast
4:35 AM 50.2 °F 49.5 °F 97% 29.94 in 1.0 mi East 5.8 mph - N/A   Overcast
4:55 AM 50.4 °F 49.5 °F 97% 29.95 in 1.5 mi East 8.1 mph - N/A   Overcast
5:15 AM 50.5 °F 49.8 °F 97% 29.95 in 1.5 mi East 9.2 mph - N/A   Overcast
5:35 AM 50.5 °F 50.0 °F 98% 29.95 in 1.2 mi East 8.1 mph - N/A   Overcast
5:55 AM 50.7 °F 50.0 °F 97% 29.96 in 1.2 mi East 8.1 mph - N/A   Overcast
6:15 AM 50.9 °F 50.0 °F 97% 29.97 in 1.2 mi ESE 4.6 mph - N/A   Overcast
6:35 AM 51.1 °F 50.4 °F 97% 29.97 in 1.8 mi East 8.1 mph - N/A   Overcast
6:55 AM 51.1 °F 50.4 °F 97% 29.97 in 1.8 mi East 6.9 mph - N/A   Overcast
7:15 AM 51.3 °F 50.5 °F 97% 29.98 in 1.2 mi East 4.6 mph - N/A   Overcast
7:35 AM 51.6 °F 50.9 °F 97% 29.99 in 1.0 mi East 4.6 mph - N/A   Overcast
7:55 AM 51.8 °F 50.9 °F 97% 29.99 in 1.2 mi ESE 8.1 mph - N/A   Overcast
8:15 AM 51.8 °F 51.1 °F 97% 30.01 in 1.2 mi ESE 5.8 mph - N/A   Overcast
8:35 AM 52.2 °F 51.3 °F 97% 30.01 in 1.2 mi East 4.6 mph - N/A   Overcast
8:55 AM 52.3 °F 51.8 °F 98% 30.01 in 1.2 mi East 4.6 mph - N/A   Overcast
9:15 AM 52.7 °F 51.8 °F 97% 30.01 in 1.2 mi East 4.6 mph - N/A   Overcast
9:35 AM 53.2 °F 52.3 °F 97% 30.01 in 1.5 mi ESE 6.9 mph - N/A   Overcast
9:55 AM 54.0 °F 53.1 °F 97% 30.02 in 2.5 mi East 5.8 mph - N/A   Overcast
10:15 AM 54.7 °F 53.8 °F 97% 30.02 in 2.5 mi ESE 5.8 mph - N/A   Overcast
10:35 AM 55.0 °F 54.0 °F 96% 30.03 in 3.0 mi East 5.8 mph - N/A   Overcast
10:55 AM 55.9 °F 54.7 °F 96% 30.02 in 3.0 mi East 4.6 mph - N/A   Overcast
11:15 AM 56.5 °F 54.5 °F 93% 30.02 in 4.0 mi East 8.1 mph - N/A   Overcast
11:35 AM 58.1 °F 55.4 °F 91% 30.01 in 4.0 mi ESE 8.1 mph - N/A   Overcast
11:55 AM 60.1 °F 55.9 °F 86% 30.00 in 5.0 mi ESE 8.1 mph - N/A   Overcast
12:15 PM 62.1 °F 56.3 °F 81% 29.99 in 7.0 mi ESE 6.9 mph - N/A   Overcast
12:35 PM 63.5 °F 56.8 °F 79% 29.98 in 7.0 mi ESE 8.1 mph - N/A   Overcast
12:55 PM 66.2 °F 57.6 °F 74% 29.96 in 10.0 mi SE 5.8 mph - N/A   Overcast
1:15 PM 68.2 °F 58.1 °F 70% 29.95 in 10.0 mi SE 9.2 mph - N/A   Mostly Cloudy
1:35 PM 69.6 °F 58.5 °F 68% 29.94 in 10.0 mi SE 9.2 mph - N/A   Scattered Clouds
1:55 PM 70.2 °F 58.5 °F 66% 29.94 in 10.0 mi SSE 9.2 mph - N/A   Scattered Clouds
2:15 PM 72.3 °F 59.4 °F 64% 29.93 in 10.0 mi South 8.1 mph 18.4 mph N/A   Scattered Clouds
2:35 PM 72.5 °F 59.7 °F 64% 29.94 in 10.0 mi SE 8.1 mph - N/A   Mostly Cloudy
2:55 PM 74.3 °F 60.3 °F 61% 29.93 in 10.0 mi SSE 8.1 mph 16.1 mph N/A   Scattered Clouds
3:15 PM 76.1 °F 61.0 °F 59% 29.92 in 10.0 mi South 5.8 mph - N/A   Clear
3:35 PM 77.0 °F 61.0 °F 58% 29.91 in 10.0 mi SSE 9.2 mph - N/A   Scattered Clouds
3:55 PM 77.7 °F 61.7 °F 58% 29.90 in 10.0 mi SE 6.9 mph - N/A   Clear
4:15 PM 77.2 °F 61.9 °F 59% 29.90 in 10.0 mi SE 8.1 mph 16.1 mph N/A   Clear
4:35 PM 75.9 °F 62.2 °F 62% 29.89 in 10.0 mi ESE 8.1 mph - N/A   Clear
4:55 PM 76.1 °F 62.4 °F 62% 29.89 in 10.0 mi SE 9.2 mph - N/A   Clear
5:15 PM 75.6 °F 62.6 °F 64% 29.90 in 10.0 mi East 9.2 mph - N/A   Clear
5:35 PM 74.5 °F 62.6 °F 66% 29.90 in 10.0 mi ESE 11.5 mph - N/A   Clear
5:55 PM 72.7 °F 62.4 °F 70% 29.90 in 10.0 mi East 6.9 mph - N/A   Clear
6:15 PM 71.1 °F 61.9 °F 73% 29.89 in 10.0 mi East 8.1 mph - N/A   Clear
6:35 PM 70.0 °F 62.1 °F 76% 29.90 in 10.0 mi East 5.8 mph - N/A   Clear
6:55 PM 69.1 °F 62.4 °F 79% 29.90 in 10.0 mi ESE 8.1 mph - N/A   Clear
7:15 PM 70.0 °F 63.1 °F 79% 29.92 in 10.0 mi ESE 10.4 mph - N/A   Mostly Cloudy
7:35 PM 69.6 °F 63.5 °F 81% 29.93 in 10.0 mi ESE 8.1 mph - N/A   Overcast
7:50 PM 69.8 °F 63.5 °F 80% 29.92 in 10.0 mi ESE 9.2 mph - N/A   Overcast
8:15 PM 68.7 °F 63.1 °F 82% 29.93 in 10.0 mi East 5.8 mph - N/A   Scattered Clouds
8:35 PM 69.1 °F 63.5 °F 82% 29.95 in 10.0 mi SE 4.6 mph - N/A   Mostly Cloudy
8:55 PM 69.1 °F 63.5 °F 82% 29.95 in 10.0 mi SE 3.5 mph - N/A   Overcast
9:15 PM 68.7 °F 63.5 °F 83% 29.95 in 10.0 mi SE 4.6 mph - N/A   Overcast
9:35 PM 67.5 °F 63.0 °F 85% 29.93 in 10.0 mi ESE 4.6 mph - N/A   Mostly Cloudy
9:55 PM 68.0 °F 63.1 °F 84% 29.94 in 10.0 mi Calm Calm - N/A   Overcast
10:15 PM 68.4 °F 63.5 °F 84% 29.94 in 10.0 mi Calm Calm - N/A   Overcast
10:35 PM 68.7 °F 63.5 °F 83% 29.94 in 10.0 mi Calm Calm - N/A   Overcast
10:55 PM 67.1 °F 63.0 °F 87% 29.93 in 10.0 mi Calm Calm - N/A   Overcast
11:15 PM 67.5 °F 63.0 °F 85% 29.93 in 10.0 mi NNE 3.5 mph - N/A   Overcast
11:35 PM 67.1 °F 62.8 °F 86% 29.95 in 10.0 mi WNW 6.9 mph - N/A   Overcast
11:55 PM 63.9 °F 57.6 °F 80% 29.96 in 10.0 mi West 12.7 mph 16.1 mph N/A   Overcast